createdAt,value
2022-09-27T00:00:16.290Z,93.15254
2022-09-27T00:05:17.244Z,93.51456
2022-09-27T00:10:18.173Z,93.15254
2022-09-27T00:15:19.083Z,93.15254
2022-09-27T00:20:20.020Z,93.15254
2022-09-27T00:25:20.946Z,93.51456
2022-09-27T00:30:21.935Z,93.15254
2022-09-27T00:35:22.853Z,93.51456
2022-09-27T00:40:23.805Z,93.51456
2022-09-27T00:45:24.770Z,93.51456
2022-09-27T00:50:25.743Z,93.87835
2022-09-27T00:55:26.679Z,93.87835
2022-09-27T01:00:27.641Z,93.87835
2022-09-27T01:05:28.553Z,93.87835
2022-09-27T01:10:29.480Z,93.87835
2022-09-27T01:15:30.509Z,93.51456
2022-09-27T01:20:31.501Z,93.87835
2022-09-27T01:25:32.425Z,93.87835
2022-09-27T01:30:33.790Z,93.87835
2022-09-27T01:35:34.751Z,94.2439
2022-09-27T01:40:35.765Z,94.61125
2022-09-27T01:45:36.739Z,94.61125
2022-09-27T01:50:37.679Z,96.09877
2022-09-27T01:55:38.597Z,95.72414
2022-09-27T02:00:39.520Z,95.35135
2022-09-27T02:05:40.437Z,95.35135
2022-09-27T02:10:41.792Z,94.61125
2022-09-27T02:15:42.826Z,94.2439
2022-09-27T02:20:43.830Z,94.2439
2022-09-27T02:25:44.706Z,93.87835
2022-09-27T02:30:45.753Z,93.87835
2022-09-27T02:35:46.754Z,93.87835
2022-09-27T02:40:47.955Z,93.87835
2022-09-27T02:45:49.073Z,93.51456
2022-09-27T02:50:50.149Z,93.51456
2022-09-27T02:55:51.194Z,94.2439
2022-09-27T03:00:52.174Z,94.98039
2022-09-27T03:05:53.091Z,94.98039
2022-09-27T03:10:54.061Z,94.61125
2022-09-27T03:15:59.368Z,94.98039
2022-09-27T03:21:02.508Z,95.35135
2022-09-27T03:26:03.434Z,94.61125
2022-09-27T03:31:04.385Z,94.61125
2022-09-27T03:36:05.435Z,94.2439
2022-09-27T03:41:06.367Z,94.2439
2022-09-27T03:46:07.409Z,93.51456
2022-09-27T03:51:08.491Z,93.87835
2022-09-27T03:56:09.579Z,93.87835
2022-09-27T04:01:10.602Z,93.87835
2022-09-27T04:06:11.628Z,92.79227
2022-09-27T04:11:12.569Z,92.43373
2022-09-27T04:16:13.493Z,91.72182
2022-09-27T04:21:14.470Z,92.07692
2022-09-27T04:26:15.408Z,92.07692
2022-09-27T04:31:16.460Z,92.07692
2022-09-27T04:36:17.405Z,92.07692
2022-09-27T04:41:18.331Z,91.72182
2022-09-27T04:46:19.293Z,91.36842
2022-09-27T04:51:20.285Z,91.01671
2022-09-27T04:56:21.211Z,91.01671
2022-09-27T05:01:22.171Z,91.01671
2022-09-27T05:06:23.173Z,91.72182
2022-09-27T05:11:24.066Z,91.36842
2022-09-27T05:16:25.063Z,91.01671
2022-09-27T05:21:26.063Z,91.36842
2022-09-27T05:26:26.981Z,91.36842
2022-09-27T05:31:28.071Z,92.43373
2022-09-27T05:36:29.041Z,91.01671
2022-09-27T05:41:30.182Z,90.66667
2022-09-27T05:46:31.344Z,90.31829
2022-09-27T05:51:32.308Z,88.94118
2022-09-27T05:56:33.219Z,88.60094
2022-09-27T06:01:34.201Z,87.58974
2022-09-27T06:06:35.308Z,86.92343
2022-09-27T06:11:36.216Z,86.59259
2022-09-27T06:16:37.224Z,86.59259
2022-09-27T06:21:38.218Z,86.92343
2022-09-27T06:26:39.115Z,86.92343
2022-09-27T06:31:40.007Z,86.59259
2022-09-27T06:36:41.001Z,86.59259
2022-09-27T06:41:42.271Z,86.92343
2022-09-27T06:46:43.299Z,86.59259
2022-09-27T06:51:44.337Z,85.6092
2022-09-27T06:56:45.300Z,86.26328
2022-09-27T07:01:46.378Z,85.6092
2022-09-27T07:06:47.487Z,85.2844
2022-09-27T07:11:48.428Z,84.9611
2022-09-27T07:16:49.445Z,84.63927
2022-09-27T07:21:50.496Z,84.31891
2022-09-27T07:26:51.446Z,84.31891
2022-09-27T07:31:52.379Z,84.31891
2022-09-27T07:36:53.281Z,83.68254
2022-09-27T07:41:54.204Z,83.68254
2022-09-27T07:46:55.098Z,84.0
2022-09-27T07:51:56.076Z,83.68254
2022-09-27T07:56:57.010Z,83.05192
2022-09-27T08:01:57.974Z,83.05192
2022-09-27T08:06:58.951Z,82.73874
2022-09-27T08:11:59.873Z,82.42697
2022-09-27T08:17:00.791Z,82.42697
2022-09-27T08:22:01.820Z,82.11659
2022-09-27T08:27:02.864Z,82.11659
2022-09-27T08:32:03.825Z,83.05192
2022-09-27T08:37:04.805Z,83.36652
2022-09-27T08:42:05.739Z,83.36652
2022-09-27T08:47:06.663Z,83.68254
2022-09-27T08:52:07.579Z,83.36652
2022-09-27T08:57:08.521Z,81.80761
2022-09-27T09:02:10.149Z,81.5
2022-09-27T09:07:14.216Z,81.5
2022-09-27T09:12:15.159Z,81.80761
2022-09-27T09:17:16.078Z,81.5
2022-09-27T09:22:17.019Z,81.19376
2022-09-27T09:27:17.953Z,80.88889
2022-09-27T09:32:18.852Z,80.28319
2022-09-27T09:37:19.768Z,80.28319
2022-09-27T09:42:20.685Z,81.19376
2022-09-27T09:47:21.613Z,81.80761
2022-09-27T09:52:22.549Z,81.19376
2022-09-27T09:57:23.447Z,82.42697
2022-09-27T10:02:24.456Z,80.88889
2022-09-27T10:07:25.379Z,79.68282
2022-09-27T10:12:26.287Z,80.28319
2022-09-27T10:17:27.270Z,81.5
2022-09-27T10:22:28.243Z,82.11659
2022-09-27T10:27:29.131Z,82.11659
2022-09-27T10:32:30.083Z,80.88889
2022-09-27T10:37:30.995Z,80.58537
2022-09-27T10:42:31.947Z,81.19376
2022-09-27T10:47:32.965Z,79.68282
2022-09-27T10:52:33.978Z,79.98234
2022-09-27T10:57:34.909Z,80.58537
2022-09-27T11:02:35.849Z,81.80761
2022-09-27T11:07:36.780Z,79.98234
2022-09-27T11:12:37.701Z,79.98234
2022-09-27T11:17:38.610Z,79.68282
2022-09-27T11:22:39.590Z,82.73874
2022-09-27T11:27:40.523Z,81.5
2022-09-27T11:32:41.691Z,81.5
2022-09-27T11:37:42.961Z,81.80761
2022-09-27T11:42:43.897Z,81.5
2022-09-27T11:47:44.895Z,83.68254
2022-09-27T11:52:45.914Z,90.66667
2022-09-27T11:57:46.803Z,89.62648
2022-09-27T12:02:47.827Z,88.94118
2022-09-27T12:07:48.771Z,89.62648
2022-09-27T12:12:49.716Z,89.62648
2022-09-27T12:17:50.657Z,88.94118
2022-09-27T12:22:59.132Z,87.92523
2022-09-27T12:28:00.770Z,85.2844
2022-09-27T12:33:01.715Z,83.36652
2022-09-27T12:38:02.637Z,83.36652
2022-09-27T12:43:03.528Z,82.11659
2022-09-27T12:48:04.491Z,81.19376
2022-09-27T12:53:05.483Z,79.68282
2022-09-27T12:58:06.513Z,79.08772
2022-09-27T13:03:16.633Z,80.28319
2022-09-27T13:08:18.540Z,79.38462
2022-09-27T13:13:19.459Z,83.36652
2022-09-27T13:18:20.395Z,83.68254
2022-09-27T13:23:21.339Z,83.36652
2022-09-27T13:28:22.261Z,83.36652
2022-09-27T13:33:23.201Z,82.11659
2022-09-27T13:38:24.130Z,81.80761
2022-09-27T13:43:25.071Z,82.73874
2022-09-27T13:48:25.986Z,82.42697
2022-09-27T13:53:26.961Z,82.11659
2022-09-27T13:58:27.944Z,81.19376
2022-09-27T14:03:28.879Z,82.42697
2022-09-27T14:08:29.807Z,82.42697
2022-09-27T14:13:30.774Z,83.05192
2022-09-27T14:18:31.678Z,83.05192
2022-09-27T14:23:32.685Z,84.63927
2022-09-27T14:28:33.602Z,87.25581
2022-09-27T14:33:34.584Z,87.25581
2022-09-27T14:38:38.519Z,87.25581
2022-09-27T14:43:39.967Z,86.59259
2022-09-27T14:48:40.991Z,88.2623
2022-09-27T14:53:42.422Z,87.58974
2022-09-27T14:58:47.489Z,87.25581
2022-09-27T15:03:49.243Z,86.26328
2022-09-27T15:08:50.392Z,84.63927
2022-09-27T15:13:51.344Z,84.63927
2022-09-27T15:18:52.273Z,83.68254
2022-09-27T15:23:53.199Z,84.0
2022-09-27T15:28:54.118Z,86.26328
2022-09-27T15:33:55.045Z,86.92343
2022-09-27T15:38:55.982Z,87.58974
2022-09-27T15:43:56.955Z,88.2623
2022-09-27T15:48:57.901Z,88.60094
2022-09-27T15:53:58.849Z,87.58974
2022-09-27T15:58:59.835Z,87.92523
2022-09-27T16:04:00.769Z,86.92343
2022-09-27T16:09:01.902Z,85.6092
2022-09-27T16:14:02.836Z,84.9611
2022-09-27T16:19:03.854Z,84.9611
2022-09-27T16:24:06.330Z,84.9611
2022-09-27T16:29:07.421Z,85.2844
2022-09-27T16:34:08.344Z,84.63927
2022-09-27T16:39:09.285Z,84.9611
2022-09-27T16:44:10.842Z,85.2844
2022-09-27T16:49:11.729Z,85.2844
2022-09-27T16:54:12.773Z,84.63927
2022-09-27T16:59:13.748Z,84.31891
2022-09-27T17:04:14.651Z,84.63927
2022-09-27T17:09:15.566Z,84.63927
2022-09-27T17:14:17.080Z,84.0
2022-09-27T17:19:18.209Z,84.31891
2022-09-27T17:24:19.187Z,84.63927
2022-09-27T17:29:20.143Z,84.31891
2022-09-27T17:34:21.083Z,84.63927
2022-09-27T17:39:22.002Z,84.31891
2022-09-27T17:44:23.020Z,84.0
2022-09-27T17:49:23.942Z,84.0
2022-09-27T17:54:24.863Z,84.31891
2022-09-27T17:59:25.772Z,84.63927
2022-09-27T18:04:26.734Z,84.63927
2022-09-27T18:09:27.649Z,84.31891
2022-09-27T18:14:28.574Z,84.31891
2022-09-27T18:19:29.493Z,84.63927
2022-09-27T18:24:30.427Z,85.6092
2022-09-27T18:29:31.354Z,86.26328
2022-09-27T18:34:32.271Z,87.25581
2022-09-27T18:39:33.212Z,87.25581
2022-09-27T18:44:34.140Z,87.92523
2022-09-27T18:49:35.114Z,88.2623
2022-09-27T18:54:36.115Z,88.2623
2022-09-27T18:59:37.047Z,87.92523
2022-09-27T19:04:37.987Z,88.60094
2022-09-27T19:09:38.972Z,89.97156
2022-09-27T19:14:39.899Z,89.97156
2022-09-27T19:19:40.819Z,90.31829
2022-09-27T19:24:41.803Z,90.31829
2022-09-27T19:29:43.256Z,90.66667
2022-09-27T19:34:44.167Z,91.01671
2022-09-27T19:39:45.111Z,91.36842
2022-09-27T19:44:46.049Z,91.36842
2022-09-27T19:49:47.115Z,91.36842
2022-09-27T19:54:48.037Z,91.72182
2022-09-27T19:59:49.035Z,92.79227
2022-09-27T20:04:49.950Z,92.79227
2022-09-27T20:09:50.862Z,92.79227
2022-09-27T20:14:51.850Z,92.79227
2022-09-27T20:19:52.776Z,93.15254
2022-09-27T20:24:53.680Z,93.51456
2022-09-27T20:29:54.652Z,93.51456
2022-09-27T20:34:55.559Z,93.87835
2022-09-27T20:39:56.487Z,93.87835
2022-09-27T20:44:57.395Z,93.87835
2022-09-27T20:49:58.325Z,93.87835
2022-09-27T20:54:59.263Z,95.35135
2022-09-27T21:00:00.192Z,95.35135
2022-09-27T21:05:01.139Z,94.98039
2022-09-27T21:10:02.198Z,95.35135
2022-09-27T21:15:03.097Z,95.72414
2022-09-27T21:20:04.014Z,95.72414
2022-09-27T21:25:04.994Z,95.35135
2022-09-27T21:30:05.908Z,94.61125
2022-09-27T21:35:06.878Z,94.61125
2022-09-27T21:40:07.873Z,94.98039
2022-09-27T21:45:08.783Z,95.35135
2022-09-27T21:50:09.682Z,95.72414
2022-09-27T21:55:10.591Z,95.72414
2022-09-27T22:00:11.524Z,95.35135
2022-09-27T22:05:12.439Z,94.98039
2022-09-27T22:10:13.354Z,94.98039
2022-09-27T22:15:14.320Z,94.61125
2022-09-27T22:20:15.238Z,94.2439
2022-09-27T22:25:16.156Z,93.51456
2022-09-27T22:30:17.086Z,93.51456
2022-09-27T22:35:18.023Z,93.51456
2022-09-27T22:40:19.014Z,93.51456
2022-09-27T22:45:19.965Z,93.87835
2022-09-27T22:50:20.901Z,93.87835
2022-09-27T22:55:21.832Z,93.87835
2022-09-27T23:00:22.806Z,94.2439
2022-09-27T23:05:23.773Z,94.2439
2022-09-27T23:10:24.715Z,94.61125
2022-09-27T23:15:25.632Z,94.61125
2022-09-27T23:20:26.550Z,94.61125
2022-09-27T23:25:27.522Z,94.61125
2022-09-27T23:30:28.461Z,94.2439
2022-09-27T23:35:29.376Z,94.98039
2022-09-27T23:40:30.424Z,94.98039
2022-09-27T23:45:31.459Z,94.98039
2022-09-27T23:50:32.496Z,94.98039
2022-09-27T23:55:33.727Z,94.61125
